Time;durP1;ratioP1;P1;durP2;ratioP2;P2;SDS_P1;SDS_P2;PMS_P1;PMS_P2;Temp;Humidity;BMP_temperature;BMP_pressure;BME280_temperature;BME280_humidity;BME280_pressure;Samples;Min_cycle;Max_cycle;Signal;HPM_P1;HPM_P2
2023/09/29 00:00:17;;;;;;;1.88;1.30;;;;;;;25.31;49.30;101347.75;5012808;28;20045;-62
2023/09/29 00:02:45;;;;;;;4.50;1.45;;;;;;;25.37;49.43;101352.38;5012737;28;20532;-61
2023/09/29 00:05:11;;;;;;;2.53;1.20;;;;;;;25.41;49.28;101356.38;5012679;28;20088;-61
2023/09/29 00:07:40;;;;;;;3.35;1.15;;;;;;;25.45;49.46;101357.66;5012463;28;20113;-61
2023/09/29 00:10:09;;;;;;;3.00;1.10;;;;;;;25.48;49.29;101350.91;5013975;28;20084;-61
2023/09/29 00:12:39;;;;;;;3.05;1.27;;;;;;;25.50;48.95;101352.38;5013794;28;20037;-61
2023/09/29 00:15:05;;;;;;;1.27;1.05;;;;;;;25.53;49.14;101353.84;5012526;28;20046;-62
2023/09/29 00:17:31;;;;;;;12.13;1.30;;;;;;;25.56;49.36;101353.44;5013340;28;20041;-62
2023/09/29 00:19:57;;;;;;;1.73;1.00;;;;;;;25.59;48.79;101356.59;5014028;28;20097;-60
2023/09/29 00:22:22;;;;;;;3.97;1.27;;;;;;;25.62;48.94;101361.66;5014708;28;20050;-61
2023/09/29 00:24:48;;;;;;;2.85;1.30;;;;;;;25.63;49.08;101357.03;5014221;28;20022;-63
2023/09/29 00:27:13;;;;;;;4.70;1.27;;;;;;;25.67;48.65;101350.88;4997321;28;20163;-61
2023/09/29 00:29:39;;;;;;;2.65;1.10;;;;;;;25.71;49.03;101348.56;5013452;28;20121;-61
2023/09/29 00:32:05;;;;;;;3.78;1.52;;;;;;;25.75;49.55;101344.28;5014461;28;20049;-62
2023/09/29 00:34:30;;;;;;;1.85;1.05;;;;;;;25.77;48.82;101348.50;5013863;28;20509;-60
2023/09/29 00:36:56;;;;;;;4.22;1.27;;;;;;;25.80;49.06;101341.75;5013260;28;20100;-61
2023/09/29 00:39:21;;;;;;;2.10;1.17;;;;;;;25.83;49.36;101339.41;5013411;28;20026;-61
2023/09/29 00:41:49;;;;;;;2.80;1.63;;;;;;;25.86;48.94;101335.38;5012071;28;20160;-61
2023/09/29 00:44:14;;;;;;;2.97;1.00;;;;;;;25.88;49.51;101330.53;5013842;28;20026;-61
2023/09/29 00:46:40;;;;;;;4.60;1.42;;;;;;;25.89;48.54;101322.06;5011948;28;20045;-61
2023/09/29 00:49:05;;;;;;;3.72;1.30;;;;;;;25.91;48.69;101313.59;5013088;28;20030;-61
2023/09/29 00:51:34;;;;;;;3.40;1.55;;;;;;;25.90;48.52;101317.44;5011995;28;20026;-61
2023/09/29 00:54:06;;;;;;;3.95;0.95;;;;;;;25.90;48.60;101311.94;4995836;28;20030;-62
2023/09/29 00:56:31;;;;;;;3.50;1.05;;;;;;;25.92;48.39;101313.41;5012045;28;20109;-62
2023/09/29 00:58:57;;;;;;;1.67;1.00;;;;;;;25.95;48.70;101320.38;5012092;28;20069;-63
2023/09/29 01:01:23;;;;;;;4.47;1.17;;;;;;;25.95;49.02;101318.47;5013351;28;20121;-63
2023/09/29 01:03:50;;;;;;;5.90;1.50;;;;;;;25.96;48.32;101317.38;5012891;28;20478;-63
2023/09/29 01:06:16;;;;;;;3.35;1.30;;;;;;;25.98;48.82;101322.69;5013044;28;20038;-63
2023/09/29 01:08:42;;;;;;;4.45;1.40;;;;;;;25.98;49.01;101318.03;5012971;28;20064;-61
2023/09/29 01:11:08;;;;;;;1.60;0.93;;;;;;;26.00;48.95;101315.06;5011795;28;20128;-61
2023/09/29 01:13:33;;;;;;;2.33;1.70;;;;;;;25.99;48.38;101308.72;5013278;28;20050;-62
2023/09/29 01:16:00;;;;;;;4.18;1.42;;;;;;;25.97;48.73;101305.34;5011754;28;20038;-62
2023/09/29 01:18:26;;;;;;;2.58;0.82;;;;;;;25.93;48.53;101301.38;4995454;28;20038;-61
2023/09/29 01:20:51;;;;;;;1.85;1.63;;;;;;;25.92;48.30;101296.09;5013030;28;20034;-62
2023/09/29 01:23:17;;;;;;;3.13;0.80;;;;;;;25.88;48.34;101300.34;5012959;28;20143;-62
2023/09/29 01:25:42;;;;;;;4.20;1.50;;;;;;;25.86;48.49;101297.81;5012788;28;20092;-61
2023/09/29 01:28:08;;;;;;;1.50;1.33;;;;;;;25.86;49.09;101303.28;5012864;28;20042;-61
2023/09/29 01:30:34;;;;;;;5.80;1.95;;;;;;;25.85;48.72;101298.84;4995087;28;20102;-62
2023/09/29 01:33:00;;;;;;;3.40;1.00;;;;;;;25.86;48.85;101286.81;5011312;28;20056;-61
2023/09/29 01:35:27;;;;;;;5.00;1.13;;;;;;;25.87;48.48;101283.03;5013896;28;20084;-61
2023/09/29 01:37:53;;;;;;;1.33;1.10;;;;;;;25.87;48.61;101299.50;5017236;28;20034;-62
2023/09/29 01:40:22;;;;;;;4.22;1.20;;;;;;;25.86;48.88;101291.47;5014782;28;20494;-62
2023/09/29 01:42:49;;;;;;;3.17;1.10;;;;;;;25.87;48.76;101294.00;5016560;28;20064;-61
2023/09/29 01:45:15;;;;;;;3.33;1.05;;;;;;;25.84;48.94;101285.34;4999093;28;20030;-61
2023/09/29 01:47:43;;;;;;;1.98;1.15;;;;;;;25.84;48.69;101286.19;5016593;28;20041;-62
2023/09/29 01:50:10;;;;;;;2.28;1.20;;;;;;;25.84;48.79;101288.94;5016369;28;20042;-62
2023/09/29 01:52:36;;;;;;;4.85;1.20;;;;;;;25.82;48.89;101293.81;5015098;28;20042;-62
2023/09/29 01:55:03;;;;;;;2.50;1.10;;;;;;;25.84;48.68;101297.19;5016806;28;20032;-62
2023/09/29 01:57:28;;;;;;;2.88;1.25;;;;;;;25.86;49.01;101297.81;5016805;28;20030;-62
2023/09/29 01:59:54;;;;;;;1.80;0.82;;;;;;;25.86;48.49;101286.81;5016906;28;20040;-61
2023/09/29 02:02:19;;;;;;;3.63;1.50;;;;;;;25.88;48.74;101279.19;5017031;28;20041;-61
2023/09/29 02:04:47;;;;;;;2.70;1.08;;;;;;;25.85;48.55;101263.16;5016871;28;20486;-62
2023/09/29 02:07:12;;;;;;;1.80;1.10;;;;;;;25.86;49.18;101267.59;5016543;28;20393;-61
2023/09/29 02:09:38;;;;;;;4.38;1.08;;;;;;;25.87;49.22;101260.22;5016391;28;20113;-61
2023/09/29 02:12:03;;;;;;;2.47;1.00;;;;;;;25.86;49.18;101253.88;5016068;28;20038;-60
2023/09/29 02:14:29;;;;;;;1.92;0.90;;;;;;;25.89;49.26;101250.69;5016392;28;20529;-62
2023/09/29 02:16:55;;;;;;;2.28;0.77;;;;;;;25.90;48.82;101241.41;5015983;28;20029;-62
2023/09/29 02:19:21;;;;;;;4.93;1.10;;;;;;;25.93;49.15;101238.22;5016003;28;20034;-62
2023/09/29 02:21:46;;;;;;;4.43;1.65;;;;;;;25.95;49.28;101230.59;5014916;28;20057;-61
2023/09/29 02:24:12;;;;;;;4.82;1.38;;;;;;;25.96;48.86;101240.50;5016051;28;20112;-61
2023/09/29 02:26:38;;;;;;;3.67;1.38;;;;;;;25.94;49.20;101228.06;4998484;28;20133;-60
2023/09/29 02:29:04;;;;;;;1.38;0.98;;;;;;;25.92;48.97;101230.19;5015986;28;20034;-61
2023/09/29 02:31:30;;;;;;;2.78;1.02;;;;;;;25.90;49.10;101230.44;5016111;28;20521;-61
2023/09/29 02:33:55;;;;;;;1.73;0.65;;;;;;;25.91;49.79;101228.50;5014434;28;20041;-61
2023/09/29 02:36:20;;;;;;;1.42;0.93;;;;;;;25.89;49.21;101225.97;5015656;28;20540;-61
2023/09/29 02:38:46;;;;;;;2.53;1.33;;;;;;;25.86;49.31;101209.94;5014491;28;20038;-61
2023/09/29 02:41:11;;;;;;;1.52;1.02;;;;;;;25.86;48.97;101209.94;5014360;28;20033;-61
2023/09/29 02:43:37;;;;;;;1.73;1.20;;;;;;;25.86;49.54;101215.44;5014830;28;20030;-61
2023/09/29 02:46:03;;;;;;;3.65;0.88;;;;;;;25.83;49.36;101221.38;5015958;28;20026;-62
2023/09/29 02:48:28;;;;;;;1.42;0.93;;;;;;;25.82;49.44;101208.72;5014064;28;20030;-60
2023/09/29 02:50:53;;;;;;;2.05;1.20;;;;;;;25.81;49.27;101203.44;5016087;28;20041;-61
2023/09/29 02:53:19;;;;;;;2.50;1.00;;;;;;;25.81;49.21;101207.03;5015945;28;20262;-61
2023/09/29 02:55:45;;;;;;;5.20;1.15;;;;;;;25.80;49.21;101210.81;5016126;28;20033;-61
2023/09/29 02:58:11;;;;;;;1.83;0.88;;;;;;;25.81;48.99;101215.25;5016031;28;20116;-60
2023/09/29 03:00:37;;;;;;;1.55;1.00;;;;;;;25.83;48.89;101215.88;5015737;28;20058;-60
2023/09/29 03:03:04;;;;;;;1.23;0.77;;;;;;;25.85;49.41;101208.25;5015838;28;20030;-61
2023/09/29 03:05:30;;;;;;;1.30;0.80;;;;;;;25.86;49.15;101203.59;5015422;28;20039;-61
2023/09/29 03:07:55;;;;;;;1.33;1.15;;;;;;;25.87;49.34;101206.16;5014385;28;20052;-61
2023/09/29 03:10:21;;;;;;;2.50;1.17;;;;;;;25.89;49.10;101197.69;5014831;28;20505;-61
2023/09/29 03:12:48;;;;;;;2.97;1.40;;;;;;;25.91;49.23;101198.28;5014142;28;20417;-61
2023/09/29 03:15:15;;;;;;;5.07;1.20;;;;;;;25.90;49.49;101194.72;5014456;28;20049;-61
2023/09/29 03:17:41;;;;;;;2.25;1.20;;;;;;;25.90;49.04;101188.41;5013903;28;20034;-61
2023/09/29 03:20:14;;;;;;;4.57;1.50;;;;;;;25.90;49.11;101194.72;5014818;28;20038;-61
2023/09/29 03:22:40;;;;;;;2.60;1.30;;;;;;;25.91;49.54;101188.16;5015148;28;20064;-61
2023/09/29 03:25:06;;;;;;;2.30;0.95;;;;;;;25.90;49.34;101177.41;5014606;28;20033;-63
2023/09/29 03:27:32;;;;;;;2.38;1.05;;;;;;;25.98;49.66;101186.22;4997082;28;20501;-62
2023/09/29 03:29:59;;;;;;;3.55;1.10;;;;;;;25.94;49.46;101179.47;5014629;28;20034;-62
2023/09/29 03:32:24;;;;;;;2.95;0.95;;;;;;;26.03;49.35;101194.63;5014591;28;20045;-61
2023/09/29 03:34:50;;;;;;;4.15;1.00;;;;;;;26.02;49.27;101181.97;5012990;28;20038;-62
2023/09/29 03:37:15;;;;;;;2.35;0.70;;;;;;;26.05;49.48;101181.53;5014466;28;20053;-62
2023/09/29 03:39:41;;;;;;;1.35;1.05;;;;;;;26.07;49.11;101177.72;5013144;28;20517;-62
2023/09/29 03:42:06;;;;;;;2.83;1.15;;;;;;;26.08;49.38;101179.38;5014415;28;20037;-62
2023/09/29 03:44:32;;;;;;;2.00;0.98;;;;;;;26.07;49.09;101177.72;5014304;28;20029;-62
2023/09/29 03:46:58;;;;;;;1.25;0.98;;;;;;;26.10;49.49;101182.78;5014393;28;20030;-62
2023/09/29 03:49:23;;;;;;;2.22;1.02;;;;;;;26.09;49.51;101175.59;5013152;28;20044;-62
2023/09/29 03:51:49;;;;;;;1.73;0.80;;;;;;;26.03;49.84;101156.19;5014299;28;20556;-61
2023/09/29 03:54:14;;;;;;;2.35;0.90;;;;;;;26.09;49.21;101145.38;5014193;28;20676;-62
2023/09/29 03:56:39;;;;;;;4.72;1.48;;;;;;;26.05;49.19;101148.56;5013275;28;20038;-61
2023/09/29 03:59:05;;;;;;;2.83;1.00;;;;;;;26.03;49.65;101145.22;5013128;28;20498;-62
2023/09/29 04:01:31;;;;;;;2.40;1.52;;;;;;;26.01;49.88;101147.34;5014143;28;20037;-61
2023/09/29 04:03:56;;;;;;;1.38;1.02;;;;;;;26.00;49.68;101150.28;5013990;28;20084;-62
2023/09/29 04:06:22;;;;;;;2.15;1.17;;;;;;;26.00;50.06;101150.28;5012557;28;20042;-61
2023/09/29 04:08:47;;;;;;;2.10;0.93;;;;;;;25.99;49.41;101143.97;5012648;28;20117;-61
2023/09/29 04:11:13;;;;;;;2.33;0.95;;;;;;;25.99;49.70;101154.13;5012509;28;20034;-63
2023/09/29 04:13:38;;;;;;;1.92;0.80;;;;;;;25.99;49.84;101154.94;5013696;28;20038;-61
2023/09/29 04:16:05;;;;;;;6.00;1.00;;;;;;;25.98;49.88;101158.78;5013816;28;20034;-61
2023/09/29 04:18:30;;;;;;;3.20;1.23;;;;;;;25.97;49.64;101146.09;5012527;28;20042;-61
2023/09/29 04:20:56;;;;;;;2.42;0.70;;;;;;;25.97;49.56;101151.59;5012667;28;20391;-61
2023/09/29 04:23:21;;;;;;;1.63;1.08;;;;;;;25.95;49.49;101155.63;5013857;28;20083;-61
2023/09/29 04:25:48;;;;;;;1.45;0.80;;;;;;;25.96;49.56;101160.88;5013820;28;20034;-61
2023/09/29 04:28:13;;;;;;;2.55;1.00;;;;;;;25.96;49.74;101147.16;5013579;28;20043;-62
2023/09/29 04:30:38;;;;;;;4.68;0.80;;;;;;;25.99;49.34;101146.69;5013570;28;20037;-61
2023/09/29 04:33:04;;;;;;;1.85;0.80;;;;;;;26.03;49.65;101147.09;5012201;28;20049;-61
2023/09/29 04:35:29;;;;;;;1.25;0.80;;;;;;;26.02;49.64;101131.69;5013814;28;20042;-61
2023/09/29 04:37:55;;;;;;;3.53;1.15;;;;;;;26.02;49.91;101138.03;5012273;28;20113;-62
2023/09/29 04:40:21;;;;;;;2.67;1.00;;;;;;;26.03;49.71;101134.22;5013239;28;20034;-61
2023/09/29 04:42:46;;;;;;;2.55;1.58;;;;;;;26.01;49.53;101128.13;5013378;28;20037;-61
2023/09/29 04:45:12;;;;;;;2.75;1.88;;;;;;;25.99;49.76;101122.00;5013319;28;20026;-60
2023/09/29 04:47:38;;;;;;;0.90;0.70;;;;;;;25.92;49.58;101112.97;5013312;28;20037;-61
2023/09/29 04:50:05;;;;;;;3.70;0.80;;;;;;;25.94;49.81;101108.09;5013161;28;20502;-62
2023/09/29 04:52:30;;;;;;;1.38;0.70;;;;;;;25.92;49.50;101114.88;5013066;28;20042;-61
2023/09/29 04:54:56;;;;;;;2.38;1.20;;;;;;;25.89;50.12;101110.69;5011995;28;20080;-62
2023/09/29 04:57:22;;;;;;;1.33;0.77;;;;;;;25.90;50.09;101111.53;5013012;28;20406;-61
2023/09/29 04:59:47;;;;;;;12.35;1.20;;;;;;;25.86;50.20;101105.63;4995575;28;20065;-61
2023/09/29 05:02:12;;;;;;;5.05;1.42;;;;;;;25.86;50.21;101113.88;5013699;28;20080;-62
2023/09/29 05:04:39;;;;;;;2.53;1.13;;;;;;;25.86;50.26;101124.00;5013758;28;20034;-61
2023/09/29 05:07:04;;;;;;;3.75;1.20;;;;;;;25.84;49.97;101106.91;5011822;28;20030;-60
2023/09/29 05:09:30;;;;;;;3.20;1.30;;;;;;;25.83;49.89;101094.25;5013078;28;20038;-63
2023/09/29 05:11:55;;;;;;;1.02;0.68;;;;;;;25.87;50.08;101104.56;5012670;28;20502;-61
2023/09/29 05:14:21;;;;;;;1.15;0.80;;;;;;;25.88;49.75;101106.25;5012324;28;20030;-62
2023/09/29 05:16:47;;;;;;;1.67;0.80;;;;;;;25.90;50.04;101104.13;5013368;28;20037;-62
2023/09/29 05:19:12;;;;;;;1.33;1.20;;;;;;;25.93;50.02;101102.84;5012328;28;20069;-62
2023/09/29 05:21:38;;;;;;;3.30;1.02;;;;;;;25.95;49.82;101109.78;5011770;28;20497;-62
2023/09/29 05:24:04;;;;;;;0.90;0.80;;;;;;;25.97;50.13;101106.81;5013205;28;20494;-62
2023/09/29 05:26:29;;;;;;;1.17;0.90;;;;;;;25.98;50.20;101108.50;5013112;28;20117;-62
2023/09/29 05:28:55;;;;;;;3.00;0.68;;;;;;;25.99;50.27;101113.75;5013082;28;20038;-63
2023/09/29 05:31:21;;;;;;;2.83;1.15;;;;;;;26.02;50.34;101110.56;5011625;28;20117;-62
2023/09/29 05:33:47;;;;;;;1.48;0.70;;;;;;;26.00;49.91;101112.69;5013138;28;20057;-61
2023/09/29 05:36:12;;;;;;;3.97;1.33;;;;;;;26.04;50.07;101110.34;5011618;28;20116;-61
2023/09/29 05:38:38;;;;;;;2.53;1.02;;;;;;;26.04;50.06;101102.97;5012751;28;20096;-60
2023/09/29 05:41:03;;;;;;;1.27;1.05;;;;;;;26.05;49.66;101103.78;5011462;28;20056;-62
2023/09/29 05:43:28;;;;;;;4.15;1.05;;;;;;;26.05;50.01;101104.63;5012486;28;20116;-62
2023/09/29 05:45:54;;;;;;;1.23;0.80;;;;;;;26.07;50.44;101098.09;5012600;28;20042;-62
2023/09/29 05:48:19;;;;;;;1.90;0.95;;;;;;;26.07;49.74;101100.84;5011317;28;20517;-61
2023/09/29 05:50:45;;;;;;;3.67;1.45;;;;;;;26.07;49.85;101112.66;5012566;28;20030;-62
2023/09/29 05:53:11;;;;;;;1.95;1.00;;;;;;;26.10;50.04;101111.38;5011167;28;20084;-62
2023/09/29 05:55:37;;;;;;;2.22;1.30;;;;;;;26.11;50.60;101099.28;5011441;28;20456;-62
2023/09/29 05:58:03;;;;;;;3.78;0.93;;;;;;;26.13;49.57;101099.94;5012495;28;20409;-61
2023/09/29 06:00:28;;;;;;;2.15;0.98;;;;;;;26.17;49.90;101106.69;5011245;28;20034;-61
2023/09/29 06:02:53;;;;;;;3.25;1.33;;;;;;;26.17;50.25;101095.69;5011353;28;20034;-62
2023/09/29 06:05:19;;;;;;;1.40;1.10;;;;;;;26.17;50.24;101107.53;5012546;28;20061;-61
2023/09/29 06:07:45;;;;;;;1.52;0.82;;;;;;;26.23;50.34;101095.66;5012854;28;20120;-61
2023/09/29 06:10:10;;;;;;;4.72;1.30;;;;;;;26.25;49.80;101104.50;5011428;28;20042;-61
2023/09/29 06:12:37;;;;;;;4.43;1.20;;;;;;;26.26;50.10;101100.69;5012573;28;20030;-62
2023/09/29 06:15:02;;;;;;;4.35;1.20;;;;;;;26.30;50.00;101092.84;5012329;28;20049;-61
2023/09/29 06:17:29;;;;;;;6.70;1.20;;;;;;;26.32;50.31;101096.19;5012662;28;20026;-61
2023/09/29 06:19:55;;;;;;;2.05;1.02;;;;;;;26.35;50.24;101093.84;5012466;28;20041;-60
2023/09/29 06:22:21;;;;;;;1.67;1.30;;;;;;;26.37;49.93;101080.72;5013292;28;20053;-61
2023/09/29 06:24:46;;;;;;;1.63;1.05;;;;;;;26.46;49.62;101095.00;5014455;28;20030;-62
2023/09/29 06:27:11;;;;;;;4.03;1.58;;;;;;;26.50;50.29;101090.72;5014345;28;20512;-61
2023/09/29 06:29:39;;;;;;;2.33;1.02;;;;;;;26.56;49.48;101101.66;5015693;28;20037;-61
2023/09/29 06:32:05;;;;;;;4.63;1.05;;;;;;;26.63;49.86;101098.00;5015451;28;20426;-61
2023/09/29 06:34:31;;;;;;;3.80;1.35;;;;;;;26.66;50.17;101095.66;5014491;28;20524;-61
2023/09/29 06:36:56;;;;;;;3.03;1.45;;;;;;;26.70;50.22;101101.50;5015781;28;20029;-61
2023/09/29 06:39:22;;;;;;;2.72;0.95;;;;;;;26.75;49.68;101094.25;4997885;28;20160;-61
2023/09/29 06:41:47;;;;;;;1.40;0.88;;;;;;;26.80;49.14;101102.69;5015510;28;20037;-61
2023/09/29 06:44:13;;;;;;;1.42;1.17;;;;;;;26.86;48.91;101103.69;5015584;28;20033;-63
2023/09/29 06:46:39;;;;;;;4.03;1.02;;;;;;;26.93;48.90;101108.06;5017151;28;20084;-61
2023/09/29 06:49:04;;;;;;;2.50;0.98;;;;;;;26.99;49.63;101106.28;5015814;28;20076;-61
2023/09/29 06:51:30;;;;;;;1.70;1.08;;;;;;;27.05;48.88;101105.38;5015515;28;20486;-61
2023/09/29 06:53:55;;;;;;;3.47;1.80;;;;;;;27.11;49.26;101094.28;5014051;28;20505;-60
2023/09/29 06:56:20;;;;;;;7.25;3.42;;;;;;;27.16;48.73;101088.91;5013871;28;20052;-61
2023/09/29 06:58:46;;;;;;;6.20;2.90;;;;;;;27.22;49.39;101091.84;5013902;28;20050;-61
2023/09/29 07:01:12;;;;;;;4.40;2.05;;;;;;;27.28;48.41;101099.13;5014035;28;20034;-61
2023/09/29 07:03:37;;;;;;;3.28;1.77;;;;;;;27.32;49.34;101100.38;5015527;28;20041;-61
2023/09/29 07:06:04;;;;;;;4.65;1.65;;;;;;;27.39;48.89;101112.09;5015254;28;20076;-62
2023/09/29 07:08:29;;;;;;;6.15;1.77;;;;;;;27.46;49.34;101107.41;5014051;28;20065;-61
2023/09/29 07:10:55;;;;;;;7.28;1.48;;;;;;;27.52;49.00;101118.34;5015308;28;20431;-61
2023/09/29 07:13:20;;;;;;;2.72;1.50;;;;;;;27.57;48.22;101110.22;5013571;28;20021;-63
2023/09/29 07:15:46;;;;;;;6.05;1.95;;;;;;;27.75;47.63;101109.28;4997487;28;20041;-63
2023/09/29 07:18:13;;;;;;;2.85;1.35;;;;;;;27.78;48.11;101106.06;5013503;28;20030;-61
2023/09/29 07:20:41;;;;;;;4.35;2.33;;;;;;;28.01;47.38;101121.81;5014975;28;20034;-61
2023/09/29 07:23:08;;;;;;;1.40;0.90;;;;;;;28.36;47.69;101114.47;5013357;28;20033;-62
2023/09/29 07:25:33;;;;;;;1.77;1.08;;;;;;;28.40;47.83;101120.34;5013706;28;20034;-62
2023/09/29 07:27:59;;;;;;;1.75;1.00;;;;;;;28.42;47.85;101118.19;5014602;28;20038;-62
2023/09/29 07:30:25;;;;;;;2.88;1.10;;;;;;;28.52;46.83;101129.47;5014741;28;20053;-63
2023/09/29 07:32:51;;;;;;;3.42;1.38;;;;;;;28.92;46.45;101124.06;5013960;28;20648;-62
2023/09/29 07:35:16;;;;;;;3.05;1.17;;;;;;;29.32;46.36;101141.50;5014623;28;20034;-63
2023/09/29 07:37:41;;;;;;;2.90;1.00;;;;;;;29.66;45.80;101143.31;5014895;28;20029;-63
2023/09/29 07:40:08;;;;;;;2.15;1.30;;;;;;;29.93;45.10;101143.53;5014506;28;20494;-63
2023/09/29 07:42:33;;;;;;;4.20;1.30;;;;;;;29.94;45.44;101145.25;5013142;28;20053;-62
2023/09/29 07:44:59;;;;;;;5.15;0.98;;;;;;;29.96;45.21;101143.06;5016100;28;20033;-63
2023/09/29 07:47:24;;;;;;;2.25;1.50;;;;;;;30.04;45.22;101145.41;5017505;28;20026;-62
2023/09/29 07:49:49;;;;;;;3.85;0.93;;;;;;;30.02;45.23;101142.91;5018306;28;20033;-62
2023/09/29 07:52:15;;;;;;;2.30;1.25;;;;;;;29.87;45.32;101156.44;5017039;28;20139;-62
2023/09/29 07:54:40;;;;;;;6.38;1.08;;;;;;;29.75;45.41;101160.31;5015827;28;20442;-62
2023/09/29 07:57:07;;;;;;;4.32;1.58;;;;;;;29.58;46.07;101163.03;5014722;28;20104;-63
2023/09/29 07:59:32;;;;;;;2.13;1.10;;;;;;;29.42;45.38;101166.59;5018749;28;20121;-62
2023/09/29 08:01:58;;;;;;;1.95;1.55;;;;;;;29.29;45.61;101175.97;5016964;28;20481;-63
2023/09/29 08:04:24;;;;;;;3.15;1.50;;;;;;;29.28;45.63;101174.31;5014551;28;20152;-62
2023/09/29 08:06:49;;;;;;;1.60;1.42;;;;;;;29.49;45.17;101181.06;5013756;28;20502;-63
2023/09/29 08:09:15;;;;;;;3.40;1.77;;;;;;;29.70;44.79;101165.75;5013905;28;20120;-62
2023/09/29 08:11:42;;;;;;;3.35;1.38;;;;;;;29.92;44.75;101172.28;5013778;28;20112;-63
2023/09/29 08:14:08;;;;;;;4.55;1.88;;;;;;;30.17;44.21;101167.22;5012515;28;20040;-63
2023/09/29 08:16:34;;;;;;;2.42;1.10;;;;;;;30.44;44.37;101165.50;5013691;28;20030;-63
2023/09/29 08:19:00;;;;;;;2.30;1.70;;;;;;;30.70;43.51;101161.19;5012321;28;20033;-63
2023/09/29 08:21:25;;;;;;;3.75;0.98;;;;;;;30.95;43.19;101177.38;5013846;28;20379;-63
2023/09/29 08:23:51;;;;;;;2.88;1.20;;;;;;;31.16;42.93;101175.72;5013592;28;20034;-63
2023/09/29 08:26:16;;;;;;;3.75;1.30;;;;;;;31.37;43.06;101177.66;5012626;28;20038;-63
2023/09/29 08:28:42;;;;;;;4.18;1.23;;;;;;;31.55;42.23;101185.66;5012414;28;20062;-63
2023/09/29 08:31:15;;;;;;;5.78;2.05;;;;;;;31.66;42.08;101179.97;5013612;28;20041;-63
2023/09/29 08:33:41;;;;;;;3.55;1.20;;;;;;;31.81;41.92;101184.03;5012049;28;20050;-63
2023/09/29 08:36:06;;;;;;;1.30;1.20;;;;;;;31.71;42.78;101182.81;5012000;28;20120;-63
2023/09/29 08:38:32;;;;;;;1.90;1.40;;;;;;;31.95;41.60;101196.38;5012177;28;20538;-63
2023/09/29 08:40:58;;;;;;;1.58;1.17;;;;;;;32.22;41.69;101202.75;5011897;28;20093;-63
2023/09/29 08:43:26;;;;;;;3.67;1.27;;;;;;;32.47;40.96;101203.00;5012111;28;20402;-63
2023/09/29 08:45:53;;;;;;;4.43;1.50;;;;;;;32.39;41.22;101206.25;5012458;28;20033;-63
2023/09/29 08:48:19;;;;;;;2.78;1.20;;;;;;;32.15;42.35;101208.53;5013116;28;20120;-63
2023/09/29 08:50:48;;;;;;;4.30;1.40;;;;;;;32.38;41.31;101212.09;5013188;28;20030;-64
2023/09/29 08:53:14;;;;;;;3.65;1.50;;;;;;;32.75;40.55;101213.78;5013310;28;20065;-62
2023/09/29 08:55:40;;;;;;;2.08;1.17;;;;;;;32.77;41.33;101217.16;5012161;28;20124;-63
2023/09/29 08:58:07;;;;;;;3.15;1.50;;;;;;;32.94;40.25;101218.94;5011949;28;20121;-61
2023/09/29 09:00:33;;;;;;;3.25;1.15;;;;;;;32.69;39.93;101225.97;4995718;28;20115;-61
2023/09/29 09:03:00;;;;;;;3.67;1.50;;;;;;;32.82;41.30;101224.69;5011830;28;20037;-61
2023/09/29 09:05:26;;;;;;;8.48;1.48;;;;;;;32.56;41.17;101243.06;5013075;28;20038;-61
2023/09/29 09:07:53;;;;;;;2.40;1.30;;;;;;;32.44;40.19;101245.13;5013006;28;20516;-62
2023/09/29 09:10:29;;;;;;;7.68;1.67;;;;;;;32.33;40.56;101239.78;5013078;28;20038;-62
2023/09/29 09:12:56;;;;;;;5.97;2.08;;;;;;;32.33;41.06;101237.81;5011618;28;20030;-61
2023/09/29 09:15:25;;;;;;;5.07;1.95;;;;;;;32.15;41.02;101246.53;5011665;28;20036;-62
2023/09/29 09:17:51;;;;;;;3.47;1.67;;;;;;;31.96;41.29;101250.72;5013008;28;20084;-62
2023/09/29 09:20:17;;;;;;;4.18;1.52;;;;;;;31.76;41.40;101256.03;5011730;28;20034;-61
2023/09/29 09:22:42;;;;;;;6.15;1.67;;;;;;;31.59;40.67;101259.72;5011689;28;20030;-62
2023/09/29 09:25:08;;;;;;;3.05;1.65;;;;;;;31.54;41.23;101254.09;5012894;28;20434;-61
2023/09/29 09:27:38;;;;;;;3.35;1.58;;;;;;;31.48;41.33;101257.91;5012934;28;20109;-61
2023/09/29 09:30:04;;;;;;;6.95;1.95;;;;;;;31.45;41.31;101258.38;5011810;28;20034;-61
2023/09/29 09:32:30;;;;;;;11.52;2.30;;;;;;;32.02;40.48;101258.03;5011729;28;20030;-61
2023/09/29 09:34:55;;;;;;;9.80;1.83;;;;;;;32.02;41.03;101260.81;5012950;28;20052;-61
2023/09/29 09:37:24;;;;;;;3.42;1.70;;;;;;;31.82;40.60;101263.31;5012637;28;20030;-63
2023/09/29 09:39:53;;;;;;;12.75;2.85;;;;;;;32.06;40.52;101267.50;5012798;28;20410;-61
2023/09/29 09:42:19;;;;;;;7.47;2.50;;;;;;;32.22;40.48;101274.88;5011467;28;20092;-61
2023/09/29 09:44:44;;;;;;;7.10;1.75;;;;;;;32.42;40.56;101265.91;5011440;28;20034;-61
2023/09/29 09:47:14;;;;;;;7.40;1.88;;;;;;;32.25;40.52;101269.66;5011500;28;20060;-61
2023/09/29 09:49:45;;;;;;;7.85;2.70;;;;;;;32.30;40.41;101260.56;5012822;28;20445;-61
2023/09/29 09:52:15;;;;;;;8.00;2.72;;;;;;;32.91;39.89;101259.19;5012650;28;20383;-62
2023/09/29 09:54:48;;;;;;;6.63;2.50;;;;;;;33.54;39.08;101260.97;4995447;28;20231;-62
2023/09/29 09:57:35;;;;;;;4.97;2.05;;;;;;;33.25;38.59;101256.94;5014756;28;20045;-61
2023/09/29 10:00:08;;;;;;;11.95;2.90;;;;;;;32.95;39.18;101263.09;5016055;28;20434;-62
2023/09/29 10:02:45;;;;;;;10.00;2.38;;;;;;;32.54;39.54;101273.03;5016273;28;20034;-61
2023/09/29 10:05:22;;;;;;;9.27;2.55;;;;;;;32.40;40.48;101277.28;5015383;28;20034;-60
2023/09/29 10:07:49;;;;;;;9.50;2.80;;;;;;;32.16;39.59;101275.94;5016161;28;20065;-61
2023/09/29 10:10:34;;;;;;;5.00;1.95;;;;;;;31.93;40.22;101277.03;5014880;28;20548;-61
2023/09/29 10:13:04;;;;;;;4.07;2.58;;;;;;;31.82;41.28;101285.47;5014914;28;20042;-62
2023/09/29 10:15:29;;;;;;;14.48;2.78;;;;;;;31.73;40.12;101281.47;5016014;28;20518;-61
2023/09/29 10:18:14;;;;;;;8.15;2.85;;;;;;;32.45;39.25;101280.13;5015895;28;20073;-61
2023/09/29 10:20:39;;;;;;;7.32;2.88;;;;;;;32.34;40.15;101288.59;5016035;28;20053;-61
2023/09/29 10:23:15;;;;;;;9.32;2.45;;;;;;;32.90;38.93;101282.50;5014750;28;20109;-61
2023/09/29 10:25:59;;;;;;;6.57;2.10;;;;;;;33.39;38.15;101291.47;5016040;28;20425;-62
2023/09/29 10:28:34;;;;;;;6.53;2.70;;;;;;;33.75;38.34;101289.75;4998199;28;20506;-62
2023/09/29 10:31:14;;;;;;;6.30;2.70;;;;;;;33.35;38.50;101290.34;5015773;28;20057;-61
2023/09/29 10:33:52;;;;;;;7.85;2.25;;;;;;;32.94;40.05;101288.34;5014145;28;20046;-61
2023/09/29 10:36:26;;;;;;;5.95;2.55;;;;;;;32.61;40.39;101284.72;5015554;28;20506;-61
2023/09/29 10:38:53;;;;;;;7.78;2.97;;;;;;;32.45;40.25;101293.13;5014362;28;20080;-61
2023/09/29 10:41:21;;;;;;;7.65;2.28;;;;;;;32.40;39.41;101296.72;5014633;28;20053;-62
2023/09/29 10:43:48;;;;;;;7.45;2.45;;;;;;;32.27;40.33;101299.91;5014568;28;20034;-61
2023/09/29 10:46:20;;;;;;;6.50;2.08;;;;;;;32.02;40.70;101302.41;5015367;28;20034;-61
2023/09/29 10:48:46;;;;;;;5.55;2.00;;;;;;;31.78;41.10;101318.41;5015258;28;20494;-61
2023/09/29 10:51:32;;;;;;;8.88;2.08;;;;;;;31.63;40.70;101321.81;5015311;28;20048;-61
2023/09/29 10:54:02;;;;;;;6.07;1.98;;;;;;;31.50;41.03;101319.41;5015268;28;20041;-61
2023/09/29 10:56:28;;;;;;;7.45;2.03;;;;;;;31.51;41.36;101318.34;5015440;28;20033;-62
2023/09/29 10:58:54;;;;;;;6.32;1.90;;;;;;;31.83;41.21;101325.97;5014508;28;20475;-62
2023/09/29 11:01:27;;;;;;;8.27;2.00;;;;;;;32.20;40.74;101327.00;5013789;28;20038;-62
2023/09/29 11:03:56;;;;;;;9.18;3.08;;;;;;;32.07;40.64;101317.16;5015313;28;20386;-61
2023/09/29 11:06:22;;;;;;;6.68;1.80;;;;;;;32.02;40.95;101319.03;5015495;28;20053;-61
2023/09/29 11:08:55;;;;;;;7.00;2.30;;;;;;;31.98;40.69;101317.84;5014737;28;20490;-61
2023/09/29 11:11:21;;;;;;;4.43;1.92;;;;;;;31.91;40.58;101325.53;5015067;28;20042;-62
2023/09/29 11:13:54;;;;;;;4.47;1.90;;;;;;;31.78;40.29;101339.75;5015041;28;20037;-61
2023/09/29 11:16:20;;;;;;;7.13;2.05;;;;;;;31.65;40.40;101332.66;5015030;28;20034;-61
2023/09/29 11:18:46;;;;;;;8.13;2.15;;;;;;;31.40;41.28;101337.78;5014885;28;20038;-61
2023/09/29 11:21:12;;;;;;;13.80;2.38;;;;;;;31.24;41.24;101347.78;5015187;28;20045;-61